sensor_id;sensor_type;location;lat;lon;timestamp;pressure;altitude;pressure_sealevel;temperature;humidity
74633;BME280;63139;52.018;8.552;2023-09-07T00:02:13;101130.09;;;15.04;100.00
74633;BME280;63139;52.018;8.552;2023-09-07T00:04:40;101135.59;;;15.02;100.00
74633;BME280;63139;52.018;8.552;2023-09-07T00:07:10;101137.78;;;14.99;100.00
74633;BME280;63139;52.018;8.552;2023-09-07T00:09:37;101132.63;;;14.97;100.00
74633;BME280;63139;52.018;8.552;2023-09-07T00:12:06;101133.00;;;14.94;100.00
74633;BME280;63139;52.018;8.552;2023-09-07T00:14:35;101134.19;;;14.92;100.00
74633;BME280;63139;52.018;8.552;2023-09-07T00:17:03;101134.19;;;14.92;100.00
74633;BME280;63139;52.018;8.552;2023-09-07T00:19:31;101134.56;;;14.89;100.00
74633;BME280;63139;52.018;8.552;2023-09-07T00:22:00;101129.41;;;14.87;100.00
74633;BME280;63139;52.018;8.552;2023-09-07T00:24:29;101139.25;;;14.87;100.00
74633;BME280;63139;52.018;8.552;2023-09-07T00:26:57;101128.91;;;14.84;100.00
74633;BME280;63139;52.018;8.552;2023-09-07T00:29:25;101132.78;;;14.81;100.00
74633;BME280;63139;52.018;8.552;2023-09-07T00:31:54;101134.63;;;14.81;100.00
74633;BME280;63139;52.018;8.552;2023-09-07T00:34:22;101131.31;;;14.79;100.00
74633;BME280;63139;52.018;8.552;2023-09-07T00:36:50;101128.16;;;14.75;100.00
74633;BME280;63139;52.018;8.552;2023-09-07T00:39:18;101131.84;;;14.74;100.00
74633;BME280;63139;52.018;8.552;2023-09-07T00:41:46;101133.84;;;14.72;100.00
74633;BME280;63139;52.018;8.552;2023-09-07T00:44:14;101128.88;;;14.69;100.00
74633;BME280;63139;52.018;8.552;2023-09-07T00:46:41;101131.72;;;14.67;100.00
74633;BME280;63139;52.018;8.552;2023-09-07T00:49:12;101133.75;;;14.65;100.00
74633;BME280;63139;52.018;8.552;2023-09-07T00:51:40;101131.44;;;14.62;100.00
74633;BME280;63139;52.018;8.552;2023-09-07T00:54:08;101131.97;;;14.58;100.00
74633;BME280;63139;52.018;8.552;2023-09-07T00:56:36;101131.13;;;14.57;100.00
74633;BME280;63139;52.018;8.552;2023-09-07T00:59:04;101128.00;;;14.54;100.00
74633;BME280;63139;52.018;8.552;2023-09-07T01:01:35;101127.34;;;14.52;100.00
74633;BME280;63139;52.018;8.552;2023-09-07T01:04:03;101132.19;;;14.48;100.00
74633;BME280;63139;52.018;8.552;2023-09-07T01:06:37;101134.19;;;14.46;100.00
74633;BME280;63139;52.018;8.552;2023-09-07T01:09:10;101130.06;;;14.44;100.00
74633;BME280;63139;52.018;8.552;2023-09-07T01:11:39;101134.91;;;14.40;100.00
74633;BME280;63139;52.018;8.552;2023-09-07T01:14:07;101131.41;;;14.40;100.00
74633;BME280;63139;52.018;8.552;2023-09-07T01:16:35;101134.44;;;14.36;100.00
74633;BME280;63139;52.018;8.552;2023-09-07T01:19:05;101118.59;;;14.35;100.00
74633;BME280;63139;52.018;8.552;2023-09-07T01:21:36;101130.44;;;14.32;100.00
74633;BME280;63139;52.018;8.552;2023-09-07T01:24:06;101125.28;;;14.31;100.00
74633;BME280;63139;52.018;8.552;2023-09-07T01:26:35;101122.81;;;14.29;100.00
74633;BME280;63139;52.018;8.552;2023-09-07T01:29:06;101122.16;;;14.27;100.00
74633;BME280;63139;52.018;8.552;2023-09-07T01:31:35;101120.50;;;14.26;100.00
74633;BME280;63139;52.018;8.552;2023-09-07T01:34:05;101117.34;;;14.23;100.00
74633;BME280;63139;52.018;8.552;2023-09-07T01:36:35;101128.00;;;14.23;100.00
74633;BME280;63139;52.018;8.552;2023-09-07T01:39:04;101127.34;;;14.21;100.00
74633;BME280;63139;52.018;8.552;2023-09-07T01:46:22;101121.06;;;14.14;100.00
74633;BME280;63139;52.018;8.552;2023-09-07T01:48:50;101123.06;;;14.12;100.00
74633;BME280;63139;52.018;8.552;2023-09-07T01:51:18;101119.13;;;14.08;100.00
74633;BME280;63139;52.018;8.552;2023-09-07T01:53:48;101113.97;;;14.06;100.00
74633;BME280;63139;52.018;8.552;2023-09-07T01:56:16;101116.97;;;14.03;100.00
74633;BME280;63139;52.018;8.552;2023-09-07T01:58:44;101110.97;;;14.01;100.00
74633;BME280;63139;52.018;8.552;2023-09-07T02:01:22;101112.81;;;14.00;100.00
74633;BME280;63139;52.018;8.552;2023-09-07T02:03:51;101109.69;;;13.97;100.00
74633;BME280;63139;52.018;8.552;2023-09-07T02:06:19;101113.50;;;13.94;100.00
74633;BME280;63139;52.018;8.552;2023-09-07T02:08:48;101107.34;;;13.94;100.00
74633;BME280;63139;52.018;8.552;2023-09-07T02:11:16;101105.06;;;13.91;100.00
74633;BME280;63139;52.018;8.552;2023-09-07T02:13:46;101105.22;;;13.89;100.00
74633;BME280;63139;52.018;8.552;2023-09-07T02:16:14;101106.59;;;13.85;100.00
74633;BME280;63139;52.018;8.552;2023-09-07T02:18:44;101107.75;;;13.83;100.00
74633;BME280;63139;52.018;8.552;2023-09-07T02:21:13;101107.09;;;13.81;100.00
74633;BME280;63139;52.018;8.552;2023-09-07T02:23:42;101109.91;;;13.79;100.00
74633;BME280;63139;52.018;8.552;2023-09-07T02:26:11;101115.25;;;13.79;100.00
74633;BME280;63139;52.018;8.552;2023-09-07T02:28:39;101111.94;;;13.77;100.00
74633;BME280;63139;52.018;8.552;2023-09-07T02:31:07;101110.28;;;13.76;100.00
74633;BME280;63139;52.018;8.552;2023-09-07T02:33:35;101107.78;;;13.75;100.00
74633;BME280;63139;52.018;8.552;2023-09-07T02:36:03;101111.28;;;13.75;100.00
74633;BME280;63139;52.018;8.552;2023-09-07T02:38:32;101105.13;;;13.75;100.00
74633;BME280;63139;52.018;8.552;2023-09-07T02:41:01;101101.81;;;13.73;100.00
74633;BME280;63139;52.018;8.552;2023-09-07T02:43:30;101101.81;;;13.73;100.00
74633;BME280;63139;52.018;8.552;2023-09-07T02:45:59;101105.66;;;13.70;100.00
74633;BME280;63139;52.018;8.552;2023-09-07T02:48:26;101101.50;;;13.68;100.00
74633;BME280;63139;52.018;8.552;2023-09-07T02:50:54;101105.16;;;13.67;100.00
74633;BME280;63139;52.018;8.552;2023-09-07T02:53:25;101099.16;;;13.65;100.00
74633;BME280;63139;52.018;8.552;2023-09-07T02:55:53;101092.38;;;13.62;100.00
74633;BME280;63139;52.018;8.552;2023-09-07T02:58:21;101099.53;;;13.62;100.00
74633;BME280;63139;52.018;8.552;2023-09-07T03:00:52;101097.03;;;13.60;100.00
74633;BME280;63139;52.018;8.552;2023-09-07T03:03:23;101093.56;;;13.59;100.00
74633;BME280;63139;52.018;8.552;2023-09-07T03:05:52;101099.03;;;13.58;100.00
74633;BME280;63139;52.018;8.552;2023-09-07T03:08:21;101099.41;;;13.55;100.00
74633;BME280;63139;52.018;8.552;2023-09-07T03:10:50;101092.41;;;13.54;100.00
74633;BME280;63139;52.018;8.552;2023-09-07T03:13:18;101097.72;;;13.54;100.00
74633;BME280;63139;52.018;8.552;2023-09-07T03:15:45;101097.56;;;13.55;100.00
74633;BME280;63139;52.018;8.552;2023-09-07T03:18:15;101100.41;;;13.54;100.00
74633;BME280;63139;52.018;8.552;2023-09-07T03:20:42;101100.41;;;13.54;100.00
74633;BME280;63139;52.018;8.552;2023-09-07T03:23:10;101098.06;;;13.51;100.00
74633;BME280;63139;52.018;8.552;2023-09-07T03:25:38;101095.56;;;13.49;100.00
74633;BME280;63139;52.018;8.552;2023-09-07T03:28:06;101100.41;;;13.46;100.00
74633;BME280;63139;52.018;8.552;2023-09-07T03:30:35;101094.25;;;13.45;100.00
74633;BME280;63139;52.018;8.552;2023-09-07T03:33:04;101106.06;;;13.43;100.00
74633;BME280;63139;52.018;8.552;2023-09-07T03:35:33;101107.06;;;13.42;100.00
74633;BME280;63139;52.018;8.552;2023-09-07T03:38:03;101094.97;;;13.39;100.00
74633;BME280;63139;52.018;8.552;2023-09-07T03:40:31;101098.78;;;13.37;100.00
74633;BME280;63139;52.018;8.552;2023-09-07T03:42:59;101106.09;;;13.35;100.00
74633;BME280;63139;52.018;8.552;2023-09-07T03:45:27;101101.13;;;13.32;100.00
74633;BME280;63139;52.018;8.552;2023-09-07T03:47:54;101103.13;;;13.30;100.00
74633;BME280;63139;52.018;8.552;2023-09-07T03:50:23;101108.44;;;13.30;100.00
74633;BME280;63139;52.018;8.552;2023-09-07T03:52:52;101111.44;;;13.27;100.00
74633;BME280;63139;52.018;8.552;2023-09-07T03:55:21;101117.94;;;13.24;100.00
74633;BME280;63139;52.018;8.552;2023-09-07T03:57:49;101110.13;;;13.23;100.00
74633;BME280;63139;52.018;8.552;2023-09-07T04:00:17;101110.28;;;13.21;100.00
74633;BME280;63139;52.018;8.552;2023-09-07T04:02:47;101114.94;;;13.19;100.00
74633;BME280;63139;52.018;8.552;2023-09-07T04:05:15;101113.31;;;13.18;100.00
74633;BME280;63139;52.018;8.552;2023-09-07T04:07:44;101110.13;;;13.14;100.00
74633;BME280;63139;52.018;8.552;2023-09-07T04:10:14;101118.13;;;13.14;100.00
74633;BME280;63139;52.018;8.552;2023-09-07T04:12:41;101115.63;;;13.13;100.00
74633;BME280;63139;52.018;8.552;2023-09-07T04:15:10;101113.13;;;13.11;100.00
74633;BME280;63139;52.018;8.552;2023-09-07T04:17:38;101109.78;;;13.09;100.00
74633;BME280;63139;52.018;8.552;2023-09-07T04:20:09;101099.31;;;13.08;100.00
74633;BME280;63139;52.018;8.552;2023-09-07T04:22:38;101107.47;;;13.06;100.00
74633;BME280;63139;52.018;8.552;2023-09-07T04:25:07;101109.13;;;13.07;100.00
74633;BME280;63139;52.018;8.552;2023-09-07T04:27:36;101105.16;;;13.03;100.00
74633;BME280;63139;52.018;8.552;2023-09-07T04:30:06;101105.78;;;13.05;100.00
74633;BME280;63139;52.018;8.552;2023-09-07T04:32:35;101099.00;;;13.03;100.00
74633;BME280;63139;52.018;8.552;2023-09-07T04:35:04;101107.81;;;13.03;100.00
74633;BME280;63139;52.018;8.552;2023-09-07T04:37:32;101109.63;;;13.03;100.00
74633;BME280;63139;52.018;8.552;2023-09-07T04:40:00;101104.31;;;13.03;100.00
74633;BME280;63139;52.018;8.552;2023-09-07T04:42:29;101108.13;;;13.00;100.00
74633;BME280;63139;52.018;8.552;2023-09-07T04:44:58;101104.66;;;13.00;100.00
74633;BME280;63139;52.018;8.552;2023-09-07T04:47:25;101107.31;;;13.00;100.00
74633;BME280;63139;52.018;8.552;2023-09-07T04:49:54;101108.28;;;12.99;100.00
74633;BME280;63139;52.018;8.552;2023-09-07T04:52:22;101102.16;;;12.98;100.00
74633;BME280;63139;52.018;8.552;2023-09-07T04:54:49;101102.97;;;12.99;100.00
74633;BME280;63139;52.018;8.552;2023-09-07T04:57:18;101110.78;;;13.00;100.00
74633;BME280;63139;52.018;8.552;2023-09-07T04:59:47;101103.66;;;13.01;100.00
74633;BME280;63139;52.018;8.552;2023-09-07T05:02:16;101106.31;;;13.01;100.00
74633;BME280;63139;52.018;8.552;2023-09-07T05:04:44;101103.66;;;13.01;100.00
74633;BME280;63139;52.018;8.552;2023-09-07T05:07:12;101104.97;;;13.05;100.00
74633;BME280;63139;52.018;8.552;2023-09-07T05:09:42;101110.28;;;13.05;100.00
74633;BME280;63139;52.018;8.552;2023-09-07T05:12:09;101103.81;;;13.07;100.00
74633;BME280;63139;52.018;8.552;2023-09-07T05:14:38;101104.31;;;13.11;100.00
74633;BME280;63139;52.018;8.552;2023-09-07T05:17:08;101112.97;;;13.13;100.00
74633;BME280;63139;52.018;8.552;2023-09-07T05:19:37;101114.94;;;13.19;100.00
74633;BME280;63139;52.018;8.552;2023-09-07T05:22:07;101112.78;;;13.23;100.00
74633;BME280;63139;52.018;8.552;2023-09-07T05:24:37;101122.91;;;13.27;100.00
74633;BME280;63139;52.018;8.552;2023-09-07T05:27:05;101121.56;;;13.31;100.00
74633;BME280;63139;52.018;8.552;2023-09-07T05:29:33;101126.53;;;13.34;100.00
74633;BME280;63139;52.018;8.552;2023-09-07T05:32:01;101121.72;;;13.38;100.00
74633;BME280;63139;52.018;8.552;2023-09-07T05:34:31;101125.69;;;13.42;100.00
74633;BME280;63139;52.018;8.552;2023-09-07T05:37:00;101120.03;;;13.45;100.00
74633;BME280;63139;52.018;8.552;2023-09-07T05:39:27;101122.16;;;13.49;100.00
74633;BME280;63139;52.018;8.552;2023-09-07T05:41:56;101126.34;;;13.52;100.00
74633;BME280;63139;52.018;8.552;2023-09-07T05:44:24;101125.66;;;13.58;100.00
74633;BME280;63139;52.018;8.552;2023-09-07T05:46:52;101120.47;;;13.65;100.00
74633;BME280;63139;52.018;8.552;2023-09-07T05:49:20;101120.59;;;13.71;100.00
74633;BME280;63139;52.018;8.552;2023-09-07T05:51:48;101125.41;;;13.76;100.00
74633;BME280;63139;52.018;8.552;2023-09-07T05:54:17;101125.56;;;13.82;100.00
74633;BME280;63139;52.018;8.552;2023-09-07T05:56:45;101131.00;;;13.89;100.00
74633;BME280;63139;52.018;8.552;2023-09-07T05:59:13;101134.63;;;13.96;100.00
74633;BME280;63139;52.018;8.552;2023-09-07T06:01:41;101138.25;;;14.03;100.00
74633;BME280;63139;52.018;8.552;2023-09-07T06:04:09;101133.91;;;14.10;100.00
74633;BME280;63139;52.018;8.552;2023-09-07T06:06:37;101139.56;;;14.15;100.00
74633;BME280;63139;52.018;8.552;2023-09-07T06:09:05;101141.50;;;14.21;100.00
74633;BME280;63139;52.018;8.552;2023-09-07T06:11:34;101142.63;;;14.27;100.00
74633;BME280;63139;52.018;8.552;2023-09-07T06:14:04;101140.09;;;14.33;100.00
74633;BME280;63139;52.018;8.552;2023-09-07T06:16:31;101137.41;;;14.42;100.00
74633;BME280;63139;52.018;8.552;2023-09-07T06:18:59;101140.84;;;14.50;100.00
74633;BME280;63139;52.018;8.552;2023-09-07T06:21:27;101145.28;;;14.58;100.00
74633;BME280;63139;52.018;8.552;2023-09-07T06:23:56;101141.25;;;14.62;100.00
74633;BME280;63139;52.018;8.552;2023-09-07T06:26:24;101146.19;;;14.73;100.00
74633;BME280;63139;52.018;8.552;2023-09-07T06:28:53;101144.28;;;14.82;100.00
74633;BME280;63139;52.018;8.552;2023-09-07T06:31:21;101147.06;;;14.88;100.00
74633;BME280;63139;52.018;8.552;2023-09-07T06:33:49;101148.84;;;14.96;100.00
74633;BME280;63139;52.018;8.552;2023-09-07T06:36:17;101151.44;;;15.04;100.00
74633;BME280;63139;52.018;8.552;2023-09-07T06:39:03;101134.31;;;15.13;100.00
74633;BME280;63139;52.018;8.552;2023-09-07T06:41:32;101148.22;;;15.23;100.00
74633;BME280;63139;52.018;8.552;2023-09-07T06:44:01;101150.81;;;15.31;100.00
74633;BME280;63139;52.018;8.552;2023-09-07T06:46:31;101145.69;;;15.44;100.00
74633;BME280;63139;52.018;8.552;2023-09-07T06:48:59;101144.03;;;15.58;100.00
74633;BME280;63139;52.018;8.552;2023-09-07T06:51:26;101142.94;;;15.67;100.00
74633;BME280;63139;52.018;8.552;2023-09-07T06:53:54;101149.03;;;15.76;100.00
74633;BME280;63139;52.018;8.552;2023-09-07T06:56:25;101145.25;;;15.85;100.00
74633;BME280;63139;52.018;8.552;2023-09-07T06:58:54;101146.16;;;15.92;100.00
74633;BME280;63139;52.018;8.552;2023-09-07T07:01:24;101147.06;;;15.99;100.00
74633;BME280;63139;52.018;8.552;2023-09-07T07:03:52;101142.44;;;16.08;100.00
74633;BME280;63139;52.018;8.552;2023-09-07T07:06:20;101148.50;;;16.16;100.00
74633;BME280;63139;52.018;8.552;2023-09-07T07:08:48;101141.19;;;16.25;100.00
74633;BME280;63139;52.018;8.552;2023-09-07T07:11:16;101142.91;;;16.33;100.00
74633;BME280;63139;52.018;8.552;2023-09-07T07:13:44;101141.16;;;16.40;100.00
74633;BME280;63139;52.018;8.552;2023-09-07T07:16:12;101141.41;;;16.45;100.00
74633;BME280;63139;52.018;8.552;2023-09-07T07:18:41;101143.94;;;16.53;100.00
74633;BME280;63139;52.018;8.552;2023-09-07T07:21:10;101149.38;;;16.59;100.00
74633;BME280;63139;52.018;8.552;2023-09-07T07:23:38;101145.38;;;16.70;100.00
74633;BME280;63139;52.018;8.552;2023-09-07T07:26:06;101147.94;;;16.78;100.00
74633;BME280;63139;52.018;8.552;2023-09-07T07:28:35;101145.78;;;16.88;100.00
74633;BME280;63139;52.018;8.552;2023-09-07T07:31:07;101151.59;;;16.98;100.00
74633;BME280;63139;52.018;8.552;2023-09-07T07:33:37;101149.63;;;17.07;100.00
74633;BME280;63139;52.018;8.552;2023-09-07T07:36:08;101147.63;;;17.16;100.00
74633;BME280;63139;52.018;8.552;2023-09-07T07:38:35;101157.78;;;17.27;100.00
74633;BME280;63139;52.018;8.552;2023-09-07T07:41:04;101148.22;;;17.39;100.00
74633;BME280;63139;52.018;8.552;2023-09-07T07:43:33;101152.41;;;17.48;100.00
74633;BME280;63139;52.018;8.552;2023-09-07T07:46:01;101153.50;;;17.60;100.00
74633;BME280;63139;52.018;8.552;2023-09-07T07:48:30;101149.22;;;17.66;100.00
74633;BME280;63139;52.018;8.552;2023-09-07T07:51:03;101154.63;;;17.79;100.00
74633;BME280;63139;52.018;8.552;2023-09-07T07:53:37;101154.50;;;17.94;99.58
74633;BME280;63139;52.018;8.552;2023-09-07T07:56:05;101151.69;;;18.08;99.12
74633;BME280;63139;52.018;8.552;2023-09-07T07:58:33;101155.44;;;18.20;96.94
74633;BME280;63139;52.018;8.552;2023-09-07T08:01:01;101156.13;;;18.36;96.77
74633;BME280;63139;52.018;8.552;2023-09-07T08:03:31;101143.38;;;18.51;96.10
74633;BME280;63139;52.018;8.552;2023-09-07T08:06:00;101147.13;;;18.63;95.88
74633;BME280;63139;52.018;8.552;2023-09-07T08:08:28;101142.00;;;18.75;94.70
74633;BME280;63139;52.018;8.552;2023-09-07T08:10:58;101141.56;;;18.84;94.19
74633;BME280;63139;52.018;8.552;2023-09-07T08:13:27;101141.34;;;18.92;93.62
74633;BME280;63139;52.018;8.552;2023-09-07T08:15:55;101136.41;;;19.03;92.36
74633;BME280;63139;52.018;8.552;2023-09-07T08:18:23;101141.75;;;19.16;90.81
74633;BME280;63139;52.018;8.552;2023-09-07T08:20:51;101136.56;;;19.27;89.96
74633;BME280;63139;52.018;8.552;2023-09-07T08:23:20;101133.66;;;19.42;88.86
74633;BME280;63139;52.018;8.552;2023-09-07T08:25:48;101126.84;;;19.59;87.13
74633;BME280;63139;52.018;8.552;2023-09-07T08:28:20;101135.06;;;19.77;84.72
74633;BME280;63139;52.018;8.552;2023-09-07T08:30:49;101128.59;;;19.92;84.74
74633;BME280;63139;52.018;8.552;2023-09-07T08:33:20;101127.91;;;20.03;84.12
74633;BME280;63139;52.018;8.552;2023-09-07T08:35:52;101127.63;;;20.17;82.43
74633;BME280;63139;52.018;8.552;2023-09-07T08:38:22;101126.34;;;20.27;83.07
74633;BME280;63139;52.018;8.552;2023-09-07T08:40:55;101127.72;;;20.42;81.04
74633;BME280;63139;52.018;8.552;2023-09-07T08:43:24;101120.59;;;20.54;81.19
74633;BME280;63139;52.018;8.552;2023-09-07T08:45:58;101132.09;;;20.68;79.92
74633;BME280;63139;52.018;8.552;2023-09-07T08:48:30;101139.84;;;20.83;80.56
74633;BME280;63139;52.018;8.552;2023-09-07T08:50:59;101130.25;;;20.93;79.70
74633;BME280;63139;52.018;8.552;2023-09-07T08:53:27;101130.75;;;21.09;77.64
74633;BME280;63139;52.018;8.552;2023-09-07T08:55:58;101134.38;;;21.21;78.11
74633;BME280;63139;52.018;8.552;2023-09-07T08:58:28;101128.88;;;21.34;77.05
74633;BME280;63139;52.018;8.552;2023-09-07T09:00:58;101127.31;;;21.45;76.71
74633;BME280;63139;52.018;8.552;2023-09-07T09:03:29;101123.72;;;21.51;76.69
74633;BME280;63139;52.018;8.552;2023-09-07T09:05:57;101112.63;;;21.59;75.33
74633;BME280;63139;52.018;8.552;2023-09-07T09:08:25;101127.25;;;21.69;75.36
74633;BME280;63139;52.018;8.552;2023-09-07T09:10:59;101120.03;;;21.82;73.35
74633;BME280;63139;52.018;8.552;2023-09-07T09:13:31;101118.22;;;21.94;72.33
74633;BME280;63139;52.018;8.552;2023-09-07T09:16:03;101110.22;;;22.05;72.85
74633;BME280;63139;52.018;8.552;2023-09-07T09:18:31;101109.91;;;22.14;72.85
74633;BME280;63139;52.018;8.552;2023-09-07T09:20:59;101115.34;;;22.25;71.98
74633;BME280;63139;52.018;8.552;2023-09-07T09:23:31;101113.16;;;22.34;69.45
74633;BME280;63139;52.018;8.552;2023-09-07T09:26:00;101118.00;;;22.43;70.93
74633;BME280;63139;52.018;8.552;2023-09-07T09:28:32;101123.75;;;22.47;71.83
74633;BME280;63139;52.018;8.552;2023-09-07T09:31:02;101115.53;;;22.54;70.87
74633;BME280;63139;52.018;8.552;2023-09-07T09:33:30;101105.72;;;22.59;70.44
74633;BME280;63139;52.018;8.552;2023-09-07T09:35:58;101114.75;;;22.65;70.45
74633;BME280;63139;52.018;8.552;2023-09-07T09:38:27;101113.81;;;22.71;70.93
74633;BME280;63139;52.018;8.552;2023-09-07T09:40:56;101107.53;;;22.77;69.78
74633;BME280;63139;52.018;8.552;2023-09-07T09:43:25;101109.06;;;22.84;69.42
74633;BME280;63139;52.018;8.552;2023-09-07T09:45:54;101114.13;;;22.93;67.57
74633;BME280;63139;52.018;8.552;2023-09-07T09:48:22;101107.53;;;23.00;67.22
74633;BME280;63139;52.018;8.552;2023-09-07T09:50:50;101099.91;;;23.09;67.13
74633;BME280;63139;52.018;8.552;2023-09-07T09:53:19;101101.44;;;23.16;66.91
74633;BME280;63139;52.018;8.552;2023-09-07T09:55:48;101108.97;;;23.26;65.79
74633;BME280;63139;52.018;8.552;2023-09-07T09:58:17;101103.19;;;23.34;65.43
74633;BME280;63139;52.018;8.552;2023-09-07T10:00:46;101092.00;;;23.42;65.39
74633;BME280;63139;52.018;8.552;2023-09-07T10:03:19;101098.94;;;23.50;63.52
74633;BME280;63139;52.018;8.552;2023-09-07T10:05:50;101091.28;;;23.58;64.77
74633;BME280;63139;52.018;8.552;2023-09-07T10:08:19;101094.22;;;23.69;63.98
74633;BME280;63139;52.018;8.552;2023-09-07T10:10:53;101091.38;;;23.75;63.23
74633;BME280;63139;52.018;8.552;2023-09-07T10:13:29;101091.00;;;23.83;61.28
74633;BME280;63139;52.018;8.552;2023-09-07T10:16:01;101084.84;;;23.88;62.38
74633;BME280;63139;52.018;8.552;2023-09-07T10:18:36;101079.06;;;23.96;61.82
74633;BME280;63139;52.018;8.552;2023-09-07T10:21:05;101081.06;;;24.01;61.83
74633;BME280;63139;52.018;8.552;2023-09-07T10:23:37;101082.56;;;24.08;59.53
74633;BME280;63139;52.018;8.552;2023-09-07T10:26:10;101073.19;;;24.16;59.63
74633;BME280;63139;52.018;8.552;2023-09-07T10:28:39;101070.84;;;24.19;59.73
74633;BME280;63139;52.018;8.552;2023-09-07T10:31:13;101077.69;;;24.22;61.06
74633;BME280;63139;52.018;8.552;2023-09-07T10:33:43;101073.56;;;24.19;61.48
74633;BME280;63139;52.018;8.552;2023-09-07T10:36:20;101068.75;;;24.21;59.96
74633;BME280;63139;52.018;8.552;2023-09-07T10:38:49;101071.78;;;24.25;61.27
74633;BME280;63139;52.018;8.552;2023-09-07T10:41:19;101069.66;;;24.27;60.59
74633;BME280;63139;52.018;8.552;2023-09-07T10:43:48;101076.22;;;24.31;59.14
74633;BME280;63139;52.018;8.552;2023-09-07T10:46:18;101062.78;;;24.36;59.57
74633;BME280;63139;52.018;8.552;2023-09-07T10:48:50;101058.94;;;24.49;57.75
74633;BME280;63139;52.018;8.552;2023-09-07T10:51:18;101071.31;;;24.61;58.25
74633;BME280;63139;52.018;8.552;2023-09-07T10:53:46;101064.44;;;24.70;57.09
74633;BME280;63139;52.018;8.552;2023-09-07T10:56:14;101060.16;;;24.74;57.12
74633;BME280;63139;52.018;8.552;2023-09-07T10:58:42;101059.66;;;24.77;55.76
74633;BME280;63139;52.018;8.552;2023-09-07T11:01:10;101059.19;;;24.81;57.06
74633;BME280;63139;52.018;8.552;2023-09-07T11:03:42;101064.59;;;24.81;57.44
74633;BME280;63139;52.018;8.552;2023-09-07T11:06:14;101055.13;;;24.83;54.51
74633;BME280;63139;52.018;8.552;2023-09-07T11:08:43;101051.13;;;24.86;56.71
74633;BME280;63139;52.018;8.552;2023-09-07T11:11:12;101051.34;;;24.84;56.10
74633;BME280;63139;52.018;8.552;2023-09-07T11:13:40;101045.78;;;24.91;55.20
74633;BME280;63139;52.018;8.552;2023-09-07T11:16:08;101044.25;;;24.95;55.25
74633;BME280;63139;52.018;8.552;2023-09-07T11:18:36;101035.94;;;25.01;53.03
74633;BME280;63139;52.018;8.552;2023-09-07T11:21:04;101039.03;;;25.10;52.92
74633;BME280;63139;52.018;8.552;2023-09-07T11:23:35;101039.63;;;25.12;52.26
74633;BME280;63139;52.018;8.552;2023-09-07T11:26:05;101032.59;;;25.16;53.13
74633;BME280;63139;52.018;8.552;2023-09-07T11:28:33;101030.72;;;25.17;52.95
74633;BME280;63139;52.018;8.552;2023-09-07T11:31:01;101027.81;;;25.23;52.25
74633;BME280;63139;52.018;8.552;2023-09-07T11:33:31;101024.09;;;25.29;50.54
74633;BME280;63139;52.018;8.552;2023-09-07T11:36:00;101028.25;;;25.37;51.25
74633;BME280;63139;52.018;8.552;2023-09-07T11:38:29;101020.25;;;25.47;50.13
74633;BME280;63139;52.018;8.552;2023-09-07T11:40:59;101024.91;;;25.51;50.93
74633;BME280;63139;52.018;8.552;2023-09-07T11:43:26;101014.06;;;25.51;50.46
74633;BME280;63139;52.018;8.552;2023-09-07T11:45:54;101017.84;;;25.50;50.96
74633;BME280;63139;52.018;8.552;2023-09-07T11:48:22;101009.72;;;25.50;50.70
74633;BME280;63139;52.018;8.552;2023-09-07T11:50:50;101014.84;;;25.47;50.40
74633;BME280;63139;52.018;8.552;2023-09-07T11:53:18;101013.25;;;25.51;50.51
74633;BME280;63139;52.018;8.552;2023-09-07T11:55:46;101008.06;;;25.49;51.62
74633;BME280;63139;52.018;8.552;2023-09-07T11:58:15;101012.69;;;25.49;51.04
74633;BME280;63139;52.018;8.552;2023-09-07T12:00:43;100999.38;;;25.47;48.56
74633;BME280;63139;52.018;8.552;2023-09-07T12:03:10;100999.94;;;25.49;50.99
74633;BME280;63139;52.018;8.552;2023-09-07T12:05:38;100996.44;;;25.49;50.38
74633;BME280;63139;52.018;8.552;2023-09-07T12:08:08;100999.13;;;25.49;48.68
74633;BME280;63139;52.018;8.552;2023-09-07T12:10:36;101003.53;;;25.55;47.64
74633;BME280;63139;52.018;8.552;2023-09-07T12:13:04;100997.69;;;25.63;48.20
74633;BME280;63139;52.018;8.552;2023-09-07T12:15:33;101002.41;;;25.73;46.99
74633;BME280;63139;52.018;8.552;2023-09-07T12:18:01;101000.03;;;25.81;47.76
74633;BME280;63139;52.018;8.552;2023-09-07T12:20:29;100999.00;;;25.87;48.05
74633;BME280;63139;52.018;8.552;2023-09-07T12:22:57;100994.72;;;25.92;48.20
74633;BME280;63139;52.018;8.552;2023-09-07T12:25:25;100987.94;;;25.94;48.41
74633;BME280;63139;52.018;8.552;2023-09-07T12:27:53;100985.81;;;25.96;48.18
74633;BME280;63139;52.018;8.552;2023-09-07T12:30:21;100988.00;;;25.99;48.00
74633;BME280;63139;52.018;8.552;2023-09-07T12:32:52;100982.38;;;26.06;48.33
74633;BME280;63139;52.018;8.552;2023-09-07T12:35:20;100986.16;;;26.05;47.36
74633;BME280;63139;52.018;8.552;2023-09-07T12:37:48;100976.13;;;26.05;48.04
74633;BME280;63139;52.018;8.552;2023-09-07T12:40:16;100965.75;;;26.02;48.72
74633;BME280;63139;52.018;8.552;2023-09-07T12:42:45;100970.91;;;25.99;49.36
74633;BME280;63139;52.018;8.552;2023-09-07T12:45:13;100968.69;;;25.96;50.15
74633;BME280;63139;52.018;8.552;2023-09-07T12:47:41;100971.97;;;25.98;50.02
74633;BME280;63139;52.018;8.552;2023-09-07T12:50:11;100971.47;;;26.01;48.37
74633;BME280;63139;52.018;8.552;2023-09-07T12:52:39;100972.34;;;26.06;49.28
74633;BME280;63139;52.018;8.552;2023-09-07T12:55:07;100967.47;;;26.08;49.61
74633;BME280;63139;52.018;8.552;2023-09-07T12:57:35;100961.75;;;26.10;50.09